Margaret — WDC3267 — position and weather

sailwx.info

Track history (hours):
 
Tides and Currents Weather Stations Pressure Air Temp Water Temp Dewpoint Dewpoint Depression Visibility Wind Speed Wind Dir Waves Ship Positions

Margaret

Owner: Cooper Marine & Timberlands Corporation, Mobile, AL. More information available from US FCC via Universal Licensing System and Coast Guard Vessel Documentation Center.

Last reported at 2015-Apr-27 00:24 UTC. Time now 2015-Apr-27 20:46 UTC.
Position N 29°60' W 089°59'.

; draft 9 m.

Type: Towing. MMSI: 367004940.

Date/timePositionNaut miles runAvg speedWind from/ knotsBaromVisibWave heightAir tempDewpointWater temp
2015-Apr-27 00:24N 29°60' W 089°59'3 3.6
2015-Apr-26 23:32N 29°58' W 090°02'1 0.7
2015-Apr-26 22:31N 29°57' W 090°01'1 0.5
2015-Apr-26 21:26N 29°57' W 090°02'0 0.0
2015-Apr-26 20:33N 29°57' W 090°02'0 0.0
2015-Apr-26 19:24N 29°57' W 090°02'0 0.0
2015-Apr-26 18:31N 29°57' W 090°02'0 0.0
2015-Apr-26 17:33N 29°57' W 090°02'0 0.0
2015-Apr-26 16:09N 29°57' W 090°02'0 0.0
2015-Apr-26 15:32N 29°57' W 090°02'1 0.5
2015-Apr-26 14:29N 29°57' W 090°02'1 0.5
2015-Apr-26 13:29N 29°57' W 090°02'0 0.0
2015-Apr-26 12:23N 29°57' W 090°02'0 0.0
2015-Apr-26 11:32N 29°57' W 090°02'0 0.0
2015-Apr-26 10:24N 29°57' W 090°02'0 0.0
2015-Apr-26 09:21N 29°57' W 090°02'0 0.0
2015-Apr-26 08:33N 29°57' W 090°02'0 0.0
2015-Apr-26 07:33N 29°57' W 090°02'0 0.0
2015-Apr-26 06:25N 29°57' W 090°02'0 0.0
2015-Apr-26 05:32N 29°57' W 090°02'0 0.0
2015-Apr-26 04:31N 29°57' W 090°02'0 0.0
2015-Apr-26 03:24N 29°57' W 090°02'0 0.0
2015-Apr-26 02:30N 29°57' W 090°02'0 0.0
2015-Apr-26 01:32N 29°57' W 090°02'0 0.0
2015-Apr-26 00:32N 29°57' W 090°02'0 0.0
2015-Apr-25 23:30N 29°57' W 090°02'0 0.0
2015-Apr-25 22:33N 29°57' W 090°02'0 0.0
2015-Apr-25 21:29N 29°57' W 090°02'0 0.0
2015-Apr-25 20:29N 29°57' W 090°02'0 0.0
2015-Apr-25 19:33N 29°57' W 090°02'0 0.2
2015-Apr-25 17:26N 29°57' W 090°02'2 1.9
2015-Apr-25 16:25N 29°56' W 089°60'1 0.4
2015-Apr-25 14:30N 29°56' W 089°59'2 0.6
2015-Apr-25 11:15N 29°57' W 090°01'7 8.2
2015-Apr-25 10:24N 29°55' W 090°08'  
2015-Apr-22 13:23N 29°59' W 090°25'6 1.4
2015-Apr-22 09:14N 29°56' W 090°20'  
Track history (hours):
 
Tides and Currents Weather Stations Pressure Air Temp Water Temp Dewpoint Dewpoint Depression Visibility Wind Speed Wind Dir Waves Ship Positions

Margaret

Owner: Cooper Marine & Timberlands Corporation, Mobile, AL. More information available from US FCC via Universal Licensing System and Coast Guard Vessel Documentation Center.

Last reported at 2015-Apr-27 00:24 UTC. Time now 2015-Apr-27 20:46 UTC.
Position N 29°60' W 089°59'.

; draft 9 m.

Type: Towing. MMSI: 367004940.

Date/timePositionNaut miles runAvg speedWind from/ knotsBaromVisibWave heightAir tempDewpointWater temp
2015-Apr-27 00:24N 29°60' W 089°59'3 3.6
2015-Apr-26 23:32N 29°58' W 090°02'1 0.7
2015-Apr-26 22:31N 29°57' W 090°01'1 0.5
2015-Apr-26 21:26N 29°57' W 090°02'0 0.0
2015-Apr-26 20:33N 29°57' W 090°02'0 0.0
2015-Apr-26 19:24N 29°57' W 090°02'0 0.0
2015-Apr-26 18:31N 29°57' W 090°02'0 0.0
2015-Apr-26 17:33N 29°57' W 090°02'0 0.0
2015-Apr-26 16:09N 29°57' W 090°02'0 0.0
2015-Apr-26 15:32N 29°57' W 090°02'1 0.5
2015-Apr-26 14:29N 29°57' W 090°02'1 0.5
2015-Apr-26 13:29N 29°57' W 090°02'0 0.0
2015-Apr-26 12:23N 29°57' W 090°02'0 0.0
2015-Apr-26 11:32N 29°57' W 090°02'0 0.0
2015-Apr-26 10:24N 29°57' W 090°02'0 0.0
2015-Apr-26 09:21N 29°57' W 090°02'0 0.0
2015-Apr-26 08:33N 29°57' W 090°02'0 0.0
2015-Apr-26 07:33N 29°57' W 090°02'0 0.0
2015-Apr-26 06:25N 29°57' W 090°02'0 0.0
2015-Apr-26 05:32N 29°57' W 090°02'0 0.0
2015-Apr-26 04:31N 29°57' W 090°02'0 0.0
2015-Apr-26 03:24N 29°57' W 090°02'0 0.0
2015-Apr-26 02:30N 29°57' W 090°02'0 0.0
2015-Apr-26 01:32N 29°57' W 090°02'0 0.0
2015-Apr-26 00:32N 29°57' W 090°02'0 0.0
2015-Apr-25 23:30N 29°57' W 090°02'0 0.0
2015-Apr-25 22:33N 29°57' W 090°02'0 0.0
2015-Apr-25 21:29N 29°57' W 090°02'0 0.0
2015-Apr-25 20:29N 29°57' W 090°02'0 0.0
2015-Apr-25 19:33N 29°57' W 090°02'0 0.2
2015-Apr-25 17:26N 29°57' W 090°02'2 1.9
2015-Apr-25 16:25N 29°56' W 089°60'1 0.4
2015-Apr-25 14:30N 29°56' W 089°59'2 0.6
2015-Apr-25 11:15N 29°57' W 090°01'7 8.2
2015-Apr-25 10:24N 29°55' W 090°08'  
2015-Apr-22 13:23N 29°59' W 090°25'6 1.4
2015-Apr-22 09:14N 29°56' W 090°20'  

Dump ship's entire track history